< < Back
Terminal Aerodrome Forecast


Current Version              Previous Versions:   1  2  3  4  5  6  7  8  9  

Terminal Aerodrome Forecast

540
FTUS42 KILM 260749 AAA
TAFFLO
TAF AMD
KFLO 260749Z 2608/2706 05005KT P6SM SCT008 BKN015
      TEMPO 2609/2612 3SM BR BKN008 OVC015
     FM261400 06006KT P6SM SCT015 BKN025
     FM261600 07008KT P6SM SCT045 BKN250
     FM270000 11004KT P6SM SCT250=

Latest METAR

690
SAUS70 KWBC 261100 RRD
MTRFLO
METAR KFLO 261053Z 06008KT 10SM OVC110 23/19 A3017 RMK AO2 SLP214
T02280194


USA.gov is the U.S. government's official web portal to all federal, state and local government web resources and services.